Airfield :
LOGIN :

Register | Disclaimer

   EN    FR    IT 

 










Legend :    VFR   Marginal VFR   IFR   Intensive IFR   Very Intensive IFR
Visi :
Ceiling :
>= 8 km
>= 3000ft
5 to 8 km
1000 to 3000 ft
1500m to 5 km
500 to 1000 ft
800 to 1500m
200 to 500 ft
< 800m
< 200 ft
Symbols :   Thunderstorms  Fog  Heavy snow  Heavy precipitations  Wind > 20 kt
SIGMETs :     Misc.  Thunderstorms  Icing  Turbulence  Mountain Waves  Volcanic Ashes






- Airport Elevation : 876 ft
- IATA code : MBX


LJMB - Maribor

CURRENT METAR :
  • 210500Z 34002KT 5000 BR BKN040 M04/M05 Q1044

EXPIRED METARs :
  • 210430Z AUTO 00000KT 4400 BR NCD M04/M05 Q1044
  • 210400Z AUTO 13002KT 4400 BR NCD M04/M05 Q1044
  • 210330Z AUTO 23001KT 6000 NCD M04/M04 Q1044
  • 210300Z AUTO 33002KT 4000 R32/1400N FZFG NCD M03/M04 Q1045
  • 210230Z AUTO 32001KT 1000 R32/0800D BR NCD M03/M03 Q1045
  • 210200Z AUTO 00000KT 2700 BR NCD M03/M03 Q1045

TAF TAF LJMB
Valid from the 21 at 03:00 until the 22 at 03:00 UTC


210200Z 2103/2203 34003KT 7000 NSC
PROB40
TEMPO 2103/2109 3500 BCFG BR SCT001
PROB30
TEMPO 2104/2108 0500 FZFG VV002
BECMG 2110/2113 18004KT 9999 FEW025
BECMG 2118/2120 VRB02KT
PROB40
TEMPO 2121/2203 3500 BCFG SCT001
PROB30
TEMPO 2200/2203 0350 FZFG VV001



MET'MAP, your aeronautical weather chart ! - Copyright ORBIFLY December 2007 - Disclaimer

ORBIFLY MET'MAP TEAM :

Programming & Development : Alexandra Zaïnal
Concept & original design : Baudouin d'Aumeries
Assistance for programming : Marc-Olivier Méhu
Technical & hardware support : Manuel Goepfert

Contact : metmap@orbifly.com




SOURCES & CREDITS :

   NOAA